createdAt,value
2019-02-26T00:01:55.054Z,7.33
2019-02-26T00:06:57.802Z,8.37
2019-02-26T00:11:59.159Z,7.27
2019-02-26T00:17:00.251Z,7.70
2019-02-26T00:22:01.368Z,8.13
2019-02-26T00:27:03.776Z,7.77
2019-02-26T00:32:07.124Z,5.17
2019-02-26T00:37:09.030Z,7.03
2019-02-26T00:42:10.095Z,7.87
2019-02-26T00:47:11.292Z,6.53
2019-02-26T00:52:13.372Z,7.00
2019-02-26T00:57:15.394Z,8.03
2019-02-26T01:02:16.488Z,9.87
2019-02-26T01:07:19.113Z,6.53
2019-02-26T01:12:20.695Z,7.30
2019-02-26T01:17:21.781Z,8.03
2019-02-26T01:22:22.885Z,7.53
2019-02-26T01:27:24.007Z,6.93
2019-02-26T01:32:25.101Z,6.33
2019-02-26T01:37:27.864Z,7.33
2019-02-26T01:42:29.872Z,5.47
2019-02-26T01:47:32.312Z,6.60
2019-02-26T01:52:33.515Z,5.90
2019-02-26T01:57:34.601Z,4.87
2019-02-26T02:02:35.715Z,6.37
2019-02-26T02:07:36.908Z,5.50
2019-02-26T02:12:39.722Z,7.17
2019-02-26T02:17:41.588Z,7.80
2019-02-26T02:22:44.452Z,7.10
2019-02-26T02:27:49.744Z,7.30
2019-02-26T02:32:53.605Z,6.87
2019-02-26T02:37:53.516Z,7.40
2019-02-26T02:42:54.828Z,7.67
2019-02-26T02:48:00.368Z,7.67
2019-02-26T02:52:59.700Z,8.40
2019-02-26T02:58:01.923Z,9.27
2019-02-26T03:03:03.030Z,6.47
2019-02-26T03:08:04.128Z,8.70
2019-02-26T03:13:05.232Z,9.47
2019-02-26T03:18:08.703Z,9.37
2019-02-26T03:23:12.349Z,11.87
2019-02-26T03:28:12.355Z,7.43
2019-02-26T03:33:13.498Z,9.53
2019-02-26T03:38:15.189Z,8.77
2019-02-26T03:43:17.659Z,8.37
2019-02-26T03:48:20.355Z,7.70
2019-02-26T03:53:25.586Z,11.00
2019-02-26T03:58:24.751Z,10.17
2019-02-26T04:03:25.964Z,9.73
2019-02-26T04:08:29.977Z,11.20
2019-02-26T04:13:30.046Z,9.67
2019-02-26T04:18:34.137Z,12.13
2019-02-26T04:23:36.025Z,12.13
2019-02-26T04:28:44.482Z,11.63
2019-02-26T04:33:47.756Z,13.73
2019-02-26T04:39:10.583Z,10.80
2019-02-26T04:44:41.972Z,62.57
2019-02-26T04:49:43.215Z,42.50
2019-02-26T04:54:44.468Z,31.07
2019-02-26T04:59:45.565Z,27.27
2019-02-26T05:04:46.660Z,20.63
2019-02-26T05:09:50.025Z,16.97
2019-02-26T05:14:50.752Z,16.77
2019-02-26T05:19:51.956Z,15.17
2019-02-26T05:24:53.168Z,14.90
2019-02-26T05:29:54.823Z,11.33
2019-02-26T05:34:56.080Z,11.53
2019-02-26T05:39:57.187Z,13.47
2019-02-26T05:45:00.701Z,14.70
2019-02-26T05:50:02.704Z,18.00
2019-02-26T05:55:05.076Z,16.60
2019-02-26T06:00:11.130Z,14.67
2019-02-26T06:05:12.347Z,13.30
2019-02-26T06:10:14.531Z,18.20
2019-02-26T06:15:15.643Z,19.37
2019-02-26T06:20:19.245Z,16.55
2019-02-26T06:25:23.963Z,14.00
2019-02-26T06:30:23.499Z,14.33
2019-02-26T06:35:24.691Z,19.23
2019-02-26T06:40:25.856Z,16.37
2019-02-26T06:45:26.956Z,13.10
2019-02-26T06:50:28.067Z,12.57
2019-02-26T06:55:29.242Z,13.60
2019-02-26T07:00:30.361Z,13.07
2019-02-26T07:05:31.466Z,14.00
2019-02-26T07:10:33.702Z,12.93
2019-02-26T07:15:35.051Z,11.17
2019-02-26T07:20:39.377Z,13.77
2019-02-26T07:25:41.466Z,18.47
2019-02-26T07:30:44.480Z,12.83
2019-02-26T07:35:45.282Z,15.07
2019-02-26T07:40:46.374Z,14.20
2019-02-26T07:45:47.462Z,24.90
2019-02-26T07:50:50.699Z,13.90
2019-02-26T07:55:51.574Z,15.57
2019-02-26T08:00:52.675Z,13.67
2019-02-26T08:05:53.873Z,19.33
2019-02-26T08:10:54.971Z,15.13
2019-02-26T08:15:58.318Z,19.63
2019-02-26T08:21:00.718Z,14.60
2019-02-26T08:26:02.306Z,13.73
2019-02-26T08:31:05.351Z,13.17
2019-02-26T08:36:06.680Z,12.73
2019-02-26T08:41:07.768Z,15.73
2019-02-26T08:46:09.331Z,9.00
2019-02-26T08:51:14.286Z,10.23
2019-02-26T08:56:14.982Z,9.63
2019-02-26T09:01:16.086Z,10.37
2019-02-26T09:06:17.224Z,11.33
2019-02-26T09:11:18.323Z,9.17
2019-02-26T09:16:20.408Z,12.60
2019-02-26T09:21:22.908Z,9.03
2019-02-26T09:26:24.225Z,11.63
2019-02-26T09:31:25.343Z,16.90
2019-02-26T09:36:29.152Z,17.87
2019-02-26T09:41:30.332Z,11.60
2019-02-26T09:46:33.564Z,12.67
2019-02-26T09:51:35.245Z,12.20
2019-02-26T09:56:37.696Z,12.13
2019-02-26T10:01:40.747Z,13.03
2019-02-26T10:06:42.621Z,11.93
2019-02-26T10:11:46.911Z,11.50
2019-02-26T10:16:51.398Z,10.33
2019-02-26T10:21:50.991Z,14.50
2019-02-26T10:26:52.096Z,13.70
2019-02-26T10:31:56.118Z,15.57
2019-02-26T10:36:56.243Z,15.40
2019-02-26T10:41:57.464Z,12.17
2019-02-26T10:47:00.690Z,12.47
2019-02-26T10:52:01.561Z,10.27
2019-02-26T10:57:04.576Z,9.90
2019-02-26T11:02:06.871Z,15.80
2019-02-26T11:07:09.401Z,13.87
2019-02-26T11:12:10.963Z,12.07
2019-02-26T11:17:12.058Z,12.43
2019-02-26T11:22:15.604Z,11.23
2019-02-26T11:27:17.290Z,13.63
2019-02-26T11:32:18.588Z,13.67
2019-02-26T11:37:20.677Z,10.00
2019-02-26T11:42:25.600Z,14.23
2019-02-26T11:47:25.857Z,9.67
2019-02-26T11:52:26.959Z,10.20
2019-02-26T11:57:30.202Z,13.33
2019-02-26T12:02:33.847Z,13.50
2019-02-26T12:07:34.856Z,10.80
2019-02-26T12:12:36.860Z,10.33
2019-02-26T12:17:39.080Z,11.97
2019-02-26T12:22:41.189Z,12.13
2019-02-26T12:27:45.519Z,12.70
2019-02-26T12:32:47.626Z,13.97
2019-02-26T12:37:50.140Z,11.43
2019-02-26T12:42:52.743Z,11.77
2019-02-26T12:47:55.269Z,9.97
2019-02-26T12:52:57.586Z,11.10
2019-02-26T12:57:59.466Z,17.83
2019-02-26T13:03:00.875Z,10.77
2019-02-26T13:08:01.976Z,10.67
2019-02-26T13:13:07.430Z,12.47
2019-02-26T13:18:06.292Z,9.70
2019-02-26T13:23:17.060Z,10.70
2019-02-26T13:28:10.493Z,9.80
2019-02-26T13:33:11.726Z,14.73
2019-02-26T13:38:12.843Z,9.00
2019-02-26T13:43:14.122Z,9.57
2019-02-26T13:48:15.966Z,10.63
2019-02-26T13:53:17.077Z,10.17
2019-02-26T13:58:18.171Z,7.93
2019-02-26T14:03:19.374Z,9.40
2019-02-26T14:08:20.480Z,10.13
2019-02-26T14:13:21.639Z,6.30
2019-02-26T14:18:22.797Z,7.40
2019-02-26T14:23:23.887Z,7.27
2019-02-26T14:28:24.995Z,8.10
2019-02-26T14:33:26.110Z,7.57
2019-02-26T14:38:27.317Z,7.20
2019-02-26T14:43:28.523Z,7.13
2019-02-26T14:48:29.927Z,6.53
2019-02-26T14:53:31.008Z,6.17
2019-02-26T14:58:32.198Z,7.57
2019-02-26T15:03:33.331Z,4.00
2019-02-26T15:08:34.523Z,6.33
2019-02-26T15:13:35.605Z,4.30
2019-02-26T15:18:36.750Z,7.70
2019-02-26T15:23:37.916Z,7.03
2019-02-26T15:28:39.021Z,5.73
2019-02-26T15:33:40.139Z,3.73
2019-02-26T15:38:41.251Z,4.93
2019-02-26T15:43:42.453Z,4.37
2019-02-26T15:48:43.554Z,4.37
2019-02-26T15:53:44.970Z,3.33
2019-02-26T15:58:46.061Z,4.63
2019-02-26T16:03:47.163Z,5.73
2019-02-26T16:08:48.276Z,6.13
2019-02-26T16:13:49.393Z,5.10
2019-02-26T16:18:50.609Z,3.67
2019-02-26T16:23:51.711Z,12.23
2019-02-26T16:28:56.426Z,8.47
2019-02-26T16:33:57.779Z,16.93
2019-02-26T16:38:58.933Z,11.50
2019-02-26T16:44:00.048Z,11.27
2019-02-26T16:49:01.362Z,13.77
2019-02-26T16:54:04.759Z,15.50
2019-02-26T16:59:07.637Z,10.17
2019-02-26T17:04:08.930Z,10.87
2019-02-26T17:09:10.576Z,11.80
2019-02-26T17:14:11.816Z,13.23
2019-02-26T17:19:15.128Z,14.83
2019-02-26T17:24:16.056Z,10.43
2019-02-26T17:29:18.338Z,9.13
2019-02-26T17:34:21.627Z,11.57
2019-02-26T17:39:23.685Z,21.93
2019-02-26T17:44:26.322Z,12.73
2019-02-26T17:49:27.451Z,12.17
2019-02-26T17:54:28.589Z,14.03
2019-02-26T17:59:29.703Z,23.83
2019-02-26T18:04:30.816Z,15.83
2019-02-26T18:09:34.393Z,11.67
2019-02-26T18:14:38.553Z,11.10
2019-02-26T18:19:38.108Z,9.30
2019-02-26T18:24:39.224Z,12.93
2019-02-26T18:29:40.350Z,11.07
2019-02-26T18:34:41.520Z,14.30
2019-02-26T18:39:42.919Z,9.80
2019-02-26T18:44:44.085Z,10.78
2019-02-26T18:49:45.226Z,11.57
2019-02-26T18:54:46.332Z,9.07
2019-02-26T18:59:47.463Z,10.37
2019-02-26T19:04:49.212Z,11.70
2019-02-26T19:09:50.578Z,10.73
2019-02-26T19:14:51.733Z,12.00
2019-02-26T19:19:52.861Z,9.30
2019-02-26T19:24:53.988Z,5.83
2019-02-26T19:29:55.154Z,8.60
2019-02-26T19:34:56.273Z,8.83
2019-02-26T19:39:57.493Z,8.23
2019-02-26T19:44:58.612Z,13.00
2019-02-26T19:49:59.806Z,11.33
2019-02-26T19:55:03.693Z,8.53
2019-02-26T20:00:11.244Z,8.20
2019-02-26T20:05:13.500Z,12.00
2019-02-26T20:10:16.081Z,9.40
2019-02-26T20:15:17.239Z,13.10
2019-02-26T20:20:19.645Z,10.17
2019-02-26T20:25:21.007Z,8.37
2019-02-26T20:30:23.171Z,9.13
2019-02-26T20:35:24.506Z,9.90
2019-02-26T20:40:25.656Z,7.97
2019-02-26T20:45:26.904Z,12.40
2019-02-26T20:50:28.223Z,9.97
2019-02-26T20:55:30.332Z,18.97
2019-02-26T21:00:31.478Z,8.03
2019-02-26T21:05:32.582Z,16.00
2019-02-26T21:10:33.686Z,10.73
2019-02-26T21:15:34.815Z,8.90
2019-02-26T21:20:35.922Z,8.90
2019-02-26T21:25:37.032Z,8.20
2019-02-26T21:30:38.340Z,7.90
2019-02-26T21:35:39.440Z,7.47
2019-02-26T21:40:40.555Z,6.97
2019-02-26T21:45:41.662Z,9.90
2019-02-26T21:50:42.878Z,7.03
2019-02-26T21:55:44.713Z,13.57
2019-02-26T22:00:45.905Z,10.07
2019-02-26T22:05:46.991Z,7.73
2019-02-26T22:10:48.105Z,7.27
2019-02-26T22:15:49.221Z,6.47
2019-02-26T22:20:50.443Z,6.00
2019-02-26T22:25:52.549Z,5.50
2019-02-26T22:30:55.950Z,4.43
2019-02-26T22:35:59.839Z,4.73
2019-02-26T22:41:02.303Z,5.77
2019-02-26T22:46:05.470Z,5.03
2019-02-26T22:51:06.575Z,8.67
2019-02-26T22:56:07.707Z,9.00
2019-02-26T23:01:30.485Z,4.93
2019-02-26T23:06:31.707Z,4.73
2019-02-26T23:11:33.419Z,5.70
2019-02-26T23:16:35.011Z,2.63
2019-02-26T23:21:36.510Z,3.03
2019-02-26T23:26:41.799Z,3.93
2019-02-26T23:31:40.741Z,2.40
2019-02-26T23:36:42.045Z,4.63
2019-02-26T23:41:43.272Z,3.03
2019-02-26T23:46:44.369Z,2.40
2019-02-26T23:51:45.572Z,2.73
2019-02-26T23:56:46.672Z,1.90
